sensor_id;sensor_type;location;lat;lon;timestamp;P1;durP1;ratioP1;P2;durP2;ratioP2
64252;SDS011;50592;52.958;-7.470;2022-11-15T00:01:50;4.78;;;0.60;;
64252;SDS011;50592;52.958;-7.470;2022-11-15T00:04:34;4.50;;;0.55;;
64252;SDS011;50592;52.958;-7.470;2022-11-15T00:07:18;2.88;;;0.63;;
64252;SDS011;50592;52.958;-7.470;2022-11-15T00:10:02;7.18;;;1.25;;
64252;SDS011;50592;52.958;-7.470;2022-11-15T00:12:47;10.05;;;1.60;;
64252;SDS011;50592;52.958;-7.470;2022-11-15T00:15:33;5.82;;;0.85;;
64252;SDS011;50592;52.958;-7.470;2022-11-15T00:18:19;6.50;;;0.80;;
64252;SDS011;50592;52.958;-7.470;2022-11-15T00:21:05;10.02;;;1.30;;
64252;SDS011;50592;52.958;-7.470;2022-11-15T00:23:51;10.73;;;1.70;;
64252;SDS011;50592;52.958;-7.470;2022-11-15T00:26:35;10.63;;;1.65;;
64252;SDS011;50592;52.958;-7.470;2022-11-15T00:29:20;7.15;;;0.98;;
64252;SDS011;50592;52.958;-7.470;2022-11-15T00:32:06;8.77;;;1.55;;
64252;SDS011;50592;52.958;-7.470;2022-11-15T00:34:50;11.05;;;1.40;;
64252;SDS011;50592;52.958;-7.470;2022-11-15T00:37:34;8.88;;;1.27;;
64252;SDS011;50592;52.958;-7.470;2022-11-15T00:40:18;14.52;;;1.50;;
64252;SDS011;50592;52.958;-7.470;2022-11-15T00:43:02;14.50;;;2.30;;
64252;SDS011;50592;52.958;-7.470;2022-11-15T00:45:46;8.15;;;1.05;;
64252;SDS011;50592;52.958;-7.470;2022-11-15T00:48:31;10.55;;;1.52;;
64252;SDS011;50592;52.958;-7.470;2022-11-15T00:51:15;10.35;;;2.42;;
64252;SDS011;50592;52.958;-7.470;2022-11-15T00:54:01;10.35;;;1.25;;
64252;SDS011;50592;52.958;-7.470;2022-11-15T00:56:45;12.77;;;2.58;;
64252;SDS011;50592;52.958;-7.470;2022-11-15T00:59:29;10.43;;;1.38;;
64252;SDS011;50592;52.958;-7.470;2022-11-15T01:02:13;12.85;;;2.22;;
64252;SDS011;50592;52.958;-7.470;2022-11-15T01:04:58;12.40;;;1.60;;
64252;SDS011;50592;52.958;-7.470;2022-11-15T01:07:42;14.18;;;1.85;;
64252;SDS011;50592;52.958;-7.470;2022-11-15T01:10:26;15.00;;;2.13;;
64252;SDS011;50592;52.958;-7.470;2022-11-15T01:13:10;15.18;;;1.77;;
64252;SDS011;50592;52.958;-7.470;2022-11-15T01:15:54;14.80;;;1.98;;
64252;SDS011;50592;52.958;-7.470;2022-11-15T01:18:39;12.90;;;2.03;;
64252;SDS011;50592;52.958;-7.470;2022-11-15T01:21:23;17.10;;;1.95;;
64252;SDS011;50592;52.958;-7.470;2022-11-15T01:24:07;15.35;;;2.13;;
64252;SDS011;50592;52.958;-7.470;2022-11-15T01:26:56;14.77;;;1.85;;
64252;SDS011;50592;52.958;-7.470;2022-11-15T01:29:40;16.98;;;1.48;;
64252;SDS011;50592;52.958;-7.470;2022-11-15T01:32:24;17.95;;;1.77;;
64252;SDS011;50592;52.958;-7.470;2022-11-15T01:35:09;11.13;;;1.85;;
64252;SDS011;50592;52.958;-7.470;2022-11-15T01:37:53;10.38;;;2.45;;
64252;SDS011;50592;52.958;-7.470;2022-11-15T01:40:38;13.07;;;1.70;;
64252;SDS011;50592;52.958;-7.470;2022-11-15T01:43:32;11.90;;;1.73;;
64252;SDS011;50592;52.958;-7.470;2022-11-15T01:49:11;16.83;;;1.92;;
64252;SDS011;50592;52.958;-7.470;2022-11-15T01:51:58;17.27;;;2.25;;
64252;SDS011;50592;52.958;-7.470;2022-11-15T01:54:45;10.20;;;1.70;;
64252;SDS011;50592;52.958;-7.470;2022-11-15T01:57:33;12.98;;;2.00;;
64252;SDS011;50592;52.958;-7.470;2022-11-15T02:00:18;13.38;;;2.08;;
64252;SDS011;50592;52.958;-7.470;2022-11-15T02:03:02;20.70;;;2.63;;
64252;SDS011;50592;52.958;-7.470;2022-11-15T02:05:46;15.80;;;2.13;;
64252;SDS011;50592;52.958;-7.470;2022-11-15T02:08:30;20.80;;;2.40;;
64252;SDS011;50592;52.958;-7.470;2022-11-15T02:11:15;14.00;;;2.40;;
64252;SDS011;50592;52.958;-7.470;2022-11-15T02:13:59;23.38;;;2.53;;
64252;SDS011;50592;52.958;-7.470;2022-11-15T02:25:39;17.30;;;2.60;;
64252;SDS011;50592;52.958;-7.470;2022-11-15T02:34:29;13.65;;;1.73;;
64252;SDS011;50592;52.958;-7.470;2022-11-15T02:40:38;21.92;;;2.80;;
64252;SDS011;50592;52.958;-7.470;2022-11-15T02:46:44;15.52;;;2.63;;
64252;SDS011;50592;52.958;-7.470;2022-11-15T02:49:53;16.02;;;2.08;;
64252;SDS011;50592;52.958;-7.470;2022-11-15T02:52:40;16.48;;;1.65;;
64252;SDS011;50592;52.958;-7.470;2022-11-15T02:55:46;14.75;;;2.10;;
64252;SDS011;50592;52.958;-7.470;2022-11-15T03:04:53;16.60;;;2.78;;
64252;SDS011;50592;52.958;-7.470;2022-11-15T03:07:48;19.35;;;2.15;;
64252;SDS011;50592;52.958;-7.470;2022-11-15T03:19:51;15.05;;;2.08;;
64252;SDS011;50592;52.958;-7.470;2022-11-15T03:22:40;16.77;;;2.20;;
64252;SDS011;50592;52.958;-7.470;2022-11-15T03:25:27;20.42;;;2.60;;
64252;SDS011;50592;52.958;-7.470;2022-11-15T03:28:16;15.13;;;1.65;;
64252;SDS011;50592;52.958;-7.470;2022-11-15T03:31:05;13.80;;;1.70;;
64252;SDS011;50592;52.958;-7.470;2022-11-15T03:34:11;14.60;;;2.65;;
64252;SDS011;50592;52.958;-7.470;2022-11-15T03:37:20;15.88;;;3.38;;
64252;SDS011;50592;52.958;-7.470;2022-11-15T03:40:09;12.07;;;1.65;;
64252;SDS011;50592;52.958;-7.470;2022-11-15T03:46:14;12.38;;;1.92;;
64252;SDS011;50592;52.958;-7.470;2022-11-15T03:49:14;15.52;;;2.00;;
64252;SDS011;50592;52.958;-7.470;2022-11-15T03:52:04;17.63;;;3.55;;
64252;SDS011;50592;52.958;-7.470;2022-11-15T03:54:50;15.70;;;2.47;;
64252;SDS011;50592;52.958;-7.470;2022-11-15T03:57:37;16.48;;;2.00;;
64252;SDS011;50592;52.958;-7.470;2022-11-15T04:00:21;16.80;;;2.55;;
64252;SDS011;50592;52.958;-7.470;2022-11-15T04:03:05;10.52;;;1.60;;
64252;SDS011;50592;52.958;-7.470;2022-11-15T04:05:51;14.30;;;1.52;;
64252;SDS011;50592;52.958;-7.470;2022-11-15T04:08:36;16.27;;;2.08;;
64252;SDS011;50592;52.958;-7.470;2022-11-15T04:11:20;18.30;;;2.25;;
64252;SDS011;50592;52.958;-7.470;2022-11-15T04:14:05;12.15;;;2.17;;
64252;SDS011;50592;52.958;-7.470;2022-11-15T04:16:49;13.98;;;1.95;;
64252;SDS011;50592;52.958;-7.470;2022-11-15T04:19:34;14.75;;;1.73;;
64252;SDS011;50592;52.958;-7.470;2022-11-15T04:22:37;13.30;;;2.10;;
64252;SDS011;50592;52.958;-7.470;2022-11-15T04:25:40;15.25;;;1.80;;
64252;SDS011;50592;52.958;-7.470;2022-11-15T04:28:26;12.82;;;2.28;;
64252;SDS011;50592;52.958;-7.470;2022-11-15T04:31:11;14.63;;;3.10;;
64252;SDS011;50592;52.958;-7.470;2022-11-15T04:33:56;15.77;;;2.58;;
64252;SDS011;50592;52.958;-7.470;2022-11-15T04:36:41;12.88;;;2.00;;
64252;SDS011;50592;52.958;-7.470;2022-11-15T04:39:44;18.35;;;1.88;;
64252;SDS011;50592;52.958;-7.470;2022-11-15T04:42:28;18.80;;;2.88;;
64252;SDS011;50592;52.958;-7.470;2022-11-15T04:45:13;12.45;;;1.85;;
64252;SDS011;50592;52.958;-7.470;2022-11-15T04:47:57;16.67;;;1.95;;
64252;SDS011;50592;52.958;-7.470;2022-11-15T04:50:41;25.40;;;2.22;;
64252;SDS011;50592;52.958;-7.470;2022-11-15T04:53:26;11.07;;;2.53;;
64252;SDS011;50592;52.958;-7.470;2022-11-15T04:56:10;14.30;;;2.20;;
64252;SDS011;50592;52.958;-7.470;2022-11-15T04:58:55;9.85;;;1.92;;
64252;SDS011;50592;52.958;-7.470;2022-11-15T05:01:39;8.15;;;1.40;;
64252;SDS011;50592;52.958;-7.470;2022-11-15T05:04:24;11.13;;;1.67;;
64252;SDS011;50592;52.958;-7.470;2022-11-15T05:07:08;15.15;;;1.80;;
64252;SDS011;50592;52.958;-7.470;2022-11-15T05:09:52;17.60;;;1.45;;
64252;SDS011;50592;52.958;-7.470;2022-11-15T05:12:36;12.32;;;1.63;;
64252;SDS011;50592;52.958;-7.470;2022-11-15T05:15:21;10.57;;;1.88;;
64252;SDS011;50592;52.958;-7.470;2022-11-15T05:18:06;8.77;;;1.55;;
64252;SDS011;50592;52.958;-7.470;2022-11-15T05:20:51;15.30;;;2.10;;
64252;SDS011;50592;52.958;-7.470;2022-11-15T05:23:35;15.80;;;2.30;;
64252;SDS011;50592;52.958;-7.470;2022-11-15T05:26:19;13.80;;;1.60;;
64252;SDS011;50592;52.958;-7.470;2022-11-15T05:29:03;21.80;;;2.00;;
64252;SDS011;50592;52.958;-7.470;2022-11-15T05:31:48;17.27;;;2.08;;
64252;SDS011;50592;52.958;-7.470;2022-11-15T05:34:32;8.70;;;1.65;;
64252;SDS011;50592;52.958;-7.470;2022-11-15T05:37:17;15.70;;;2.15;;
64252;SDS011;50592;52.958;-7.470;2022-11-15T05:40:02;17.08;;;1.80;;
64252;SDS011;50592;52.958;-7.470;2022-11-15T05:42:47;7.13;;;1.48;;
64252;SDS011;50592;52.958;-7.470;2022-11-15T05:45:32;15.07;;;2.28;;
64252;SDS011;50592;52.958;-7.470;2022-11-15T05:48:18;17.65;;;2.58;;
64252;SDS011;50592;52.958;-7.470;2022-11-15T05:51:03;14.25;;;1.67;;
64252;SDS011;50592;52.958;-7.470;2022-11-15T05:53:50;16.90;;;2.30;;
64252;SDS011;50592;52.958;-7.470;2022-11-15T05:56:36;11.38;;;1.98;;
64252;SDS011;50592;52.958;-7.470;2022-11-15T05:59:21;14.13;;;1.80;;
64252;SDS011;50592;52.958;-7.470;2022-11-15T06:02:05;23.13;;;2.60;;
64252;SDS011;50592;52.958;-7.470;2022-11-15T06:04:50;16.45;;;1.75;;
64252;SDS011;50592;52.958;-7.470;2022-11-15T06:07:34;9.20;;;1.85;;
64252;SDS011;50592;52.958;-7.470;2022-11-15T06:10:18;21.95;;;3.65;;
64252;SDS011;50592;52.958;-7.470;2022-11-15T06:13:03;14.60;;;1.92;;
64252;SDS011;50592;52.958;-7.470;2022-11-15T06:15:48;14.35;;;1.55;;
64252;SDS011;50592;52.958;-7.470;2022-11-15T06:18:33;19.92;;;2.38;;
64252;SDS011;50592;52.958;-7.470;2022-11-15T06:21:18;15.35;;;1.70;;
64252;SDS011;50592;52.958;-7.470;2022-11-15T06:24:02;19.77;;;2.30;;
64252;SDS011;50592;52.958;-7.470;2022-11-15T06:26:47;15.63;;;1.95;;
64252;SDS011;50592;52.958;-7.470;2022-11-15T06:29:31;18.65;;;2.95;;
64252;SDS011;50592;52.958;-7.470;2022-11-15T06:32:15;20.50;;;2.10;;
64252;SDS011;50592;52.958;-7.470;2022-11-15T06:34:59;18.17;;;2.50;;
64252;SDS011;50592;52.958;-7.470;2022-11-15T06:37:43;18.80;;;2.45;;
64252;SDS011;50592;52.958;-7.470;2022-11-15T06:40:28;12.35;;;2.08;;
64252;SDS011;50592;52.958;-7.470;2022-11-15T06:43:12;12.07;;;1.83;;
64252;SDS011;50592;52.958;-7.470;2022-11-15T06:45:59;14.02;;;2.35;;
64252;SDS011;50592;52.958;-7.470;2022-11-15T06:48:44;16.20;;;2.85;;
64252;SDS011;50592;52.958;-7.470;2022-11-15T06:51:29;16.63;;;2.05;;
64252;SDS011;50592;52.958;-7.470;2022-11-15T06:54:14;21.52;;;3.20;;
64252;SDS011;50592;52.958;-7.470;2022-11-15T06:56:58;13.38;;;1.20;;
64252;SDS011;50592;52.958;-7.470;2022-11-15T06:59:42;8.85;;;2.03;;
64252;SDS011;50592;52.958;-7.470;2022-11-15T07:02:26;14.80;;;3.78;;
64252;SDS011;50592;52.958;-7.470;2022-11-15T07:05:11;11.57;;;1.65;;
64252;SDS011;50592;52.958;-7.470;2022-11-15T07:07:56;10.20;;;1.70;;
64252;SDS011;50592;52.958;-7.470;2022-11-15T07:10:41;11.93;;;2.88;;
64252;SDS011;50592;52.958;-7.470;2022-11-15T07:13:25;10.27;;;1.55;;
64252;SDS011;50592;52.958;-7.470;2022-11-15T07:16:10;11.27;;;1.80;;
64252;SDS011;50592;52.958;-7.470;2022-11-15T07:18:55;22.73;;;2.30;;
64252;SDS011;50592;52.958;-7.470;2022-11-15T07:21:39;17.63;;;2.13;;
64252;SDS011;50592;52.958;-7.470;2022-11-15T07:24:23;13.15;;;1.58;;
64252;SDS011;50592;52.958;-7.470;2022-11-15T07:27:08;9.07;;;2.58;;
64252;SDS011;50592;52.958;-7.470;2022-11-15T07:29:52;9.98;;;1.60;;
64252;SDS011;50592;52.958;-7.470;2022-11-15T07:32:36;8.27;;;1.52;;
64252;SDS011;50592;52.958;-7.470;2022-11-15T07:35:20;8.82;;;1.70;;
64252;SDS011;50592;52.958;-7.470;2022-11-15T07:38:04;12.70;;;1.50;;
64252;SDS011;50592;52.958;-7.470;2022-11-15T07:40:55;10.57;;;1.92;;
64252;SDS011;50592;52.958;-7.470;2022-11-15T07:43:43;6.93;;;1.40;;
64252;SDS011;50592;52.958;-7.470;2022-11-15T07:46:28;9.13;;;1.55;;
64252;SDS011;50592;52.958;-7.470;2022-11-15T07:49:13;9.38;;;1.77;;
64252;SDS011;50592;52.958;-7.470;2022-11-15T07:51:57;12.30;;;1.25;;
64252;SDS011;50592;52.958;-7.470;2022-11-15T07:54:41;9.57;;;1.65;;
64252;SDS011;50592;52.958;-7.470;2022-11-15T07:57:25;12.75;;;1.40;;
64252;SDS011;50592;52.958;-7.470;2022-11-15T08:00:10;10.85;;;2.25;;
64252;SDS011;50592;52.958;-7.470;2022-11-15T08:03:04;7.00;;;1.90;;
64252;SDS011;50592;52.958;-7.470;2022-11-15T08:05:51;11.87;;;1.40;;
64252;SDS011;50592;52.958;-7.470;2022-11-15T08:08:36;16.30;;;2.40;;
64252;SDS011;50592;52.958;-7.470;2022-11-15T08:11:20;16.33;;;1.58;;
64252;SDS011;50592;52.958;-7.470;2022-11-15T08:14:04;9.63;;;1.98;;
64252;SDS011;50592;52.958;-7.470;2022-11-15T08:16:48;11.73;;;1.90;;
64252;SDS011;50592;52.958;-7.470;2022-11-15T08:19:33;9.25;;;1.83;;
64252;SDS011;50592;52.958;-7.470;2022-11-15T08:22:18;10.98;;;1.88;;
64252;SDS011;50592;52.958;-7.470;2022-11-15T08:25:02;6.35;;;0.98;;
64252;SDS011;50592;52.958;-7.470;2022-11-15T08:27:47;11.98;;;1.23;;
64252;SDS011;50592;52.958;-7.470;2022-11-15T08:30:34;7.72;;;1.55;;
64252;SDS011;50592;52.958;-7.470;2022-11-15T08:33:20;22.05;;;2.35;;
64252;SDS011;50592;52.958;-7.470;2022-11-15T08:36:05;12.63;;;2.08;;
64252;SDS011;50592;52.958;-7.470;2022-11-15T08:38:49;7.35;;;1.50;;
64252;SDS011;50592;52.958;-7.470;2022-11-15T08:41:34;15.52;;;1.92;;
64252;SDS011;50592;52.958;-7.470;2022-11-15T08:44:21;10.10;;;1.55;;
64252;SDS011;50592;52.958;-7.470;2022-11-15T08:47:06;8.63;;;1.42;;
64252;SDS011;50592;52.958;-7.470;2022-11-15T08:49:50;11.77;;;1.70;;
64252;SDS011;50592;52.958;-7.470;2022-11-15T08:52:34;15.80;;;1.88;;
64252;SDS011;50592;52.958;-7.470;2022-11-15T08:55:18;9.70;;;1.20;;
64252;SDS011;50592;52.958;-7.470;2022-11-15T08:58:02;12.77;;;2.40;;
64252;SDS011;50592;52.958;-7.470;2022-11-15T09:00:47;9.00;;;1.83;;
64252;SDS011;50592;52.958;-7.470;2022-11-15T09:03:31;8.23;;;2.35;;
64252;SDS011;50592;52.958;-7.470;2022-11-15T09:06:16;11.23;;;2.10;;
64252;SDS011;50592;52.958;-7.470;2022-11-15T09:09:01;12.48;;;2.20;;
64252;SDS011;50592;52.958;-7.470;2022-11-15T09:11:46;14.43;;;1.80;;
64252;SDS011;50592;52.958;-7.470;2022-11-15T09:14:31;14.05;;;2.05;;
64252;SDS011;50592;52.958;-7.470;2022-11-15T09:17:15;15.07;;;1.98;;
64252;SDS011;50592;52.958;-7.470;2022-11-15T09:20:01;15.85;;;3.13;;
64252;SDS011;50592;52.958;-7.470;2022-11-15T09:22:46;10.45;;;1.50;;
64252;SDS011;50592;52.958;-7.470;2022-11-15T09:25:30;8.57;;;1.50;;
64252;SDS011;50592;52.958;-7.470;2022-11-15T09:28:16;13.57;;;1.52;;
64252;SDS011;50592;52.958;-7.470;2022-11-15T09:31:02;11.65;;;1.70;;
64252;SDS011;50592;52.958;-7.470;2022-11-15T09:33:48;12.35;;;1.95;;
64252;SDS011;50592;52.958;-7.470;2022-11-15T09:36:32;14.13;;;2.08;;
64252;SDS011;50592;52.958;-7.470;2022-11-15T09:39:16;19.40;;;2.35;;
64252;SDS011;50592;52.958;-7.470;2022-11-15T09:45:17;16.60;;;1.80;;
64252;SDS011;50592;52.958;-7.470;2022-11-15T09:54:54;11.10;;;1.97;;
64252;SDS011;50592;52.958;-7.470;2022-11-15T09:57:09;10.43;;;1.40;;
64252;SDS011;50592;52.958;-7.470;2022-11-15T10:05:13;15.30;;;1.40;;
64252;SDS011;50592;52.958;-7.470;2022-11-15T10:07:49;11.77;;;1.92;;
64252;SDS011;50592;52.958;-7.470;2022-11-15T10:13:17;12.60;;;1.33;;
64252;SDS011;50592;52.958;-7.470;2022-11-15T10:15:48;12.10;;;1.83;;
64252;SDS011;50592;52.958;-7.470;2022-11-15T10:20:58;11.15;;;1.33;;
64252;SDS011;50592;52.958;-7.470;2022-11-15T10:23:26;6.85;;;1.23;;
64252;SDS011;50592;52.958;-7.470;2022-11-15T10:25:54;11.18;;;1.58;;
64252;SDS011;50592;52.958;-7.470;2022-11-15T10:28:25;20.90;;;1.80;;
64252;SDS011;50592;52.958;-7.470;2022-11-15T10:30:54;12.60;;;1.92;;
64252;SDS011;50592;52.958;-7.470;2022-11-15T10:33:31;9.10;;;2.05;;
64252;SDS011;50592;52.958;-7.470;2022-11-15T10:41:14;10.15;;;1.35;;
64252;SDS011;50592;52.958;-7.470;2022-11-15T10:44:31;9.93;;;1.52;;
64252;SDS011;50592;52.958;-7.470;2022-11-15T10:46:33;15.90;;;2.20;;
64252;SDS011;50592;52.958;-7.470;2022-11-15T10:51:47;14.15;;;2.15;;
64252;SDS011;50592;52.958;-7.470;2022-11-15T10:54:19;19.45;;;2.75;;
64252;SDS011;50592;52.958;-7.470;2022-11-15T10:56:50;20.50;;;2.42;;
64252;SDS011;50592;52.958;-7.470;2022-11-15T10:59:23;15.40;;;1.95;;
64252;SDS011;50592;52.958;-7.470;2022-11-15T11:01:54;6.65;;;1.25;;
64252;SDS011;50592;52.958;-7.470;2022-11-15T11:04:20;9.77;;;1.83;;
64252;SDS011;50592;52.958;-7.470;2022-11-15T11:06:50;11.38;;;1.80;;
64252;SDS011;50592;52.958;-7.470;2022-11-15T11:09:31;7.53;;;1.95;;
64252;SDS011;50592;52.958;-7.470;2022-11-15T11:11:59;11.75;;;1.63;;
64252;SDS011;50592;52.958;-7.470;2022-11-15T11:14:27;10.40;;;1.52;;
64252;SDS011;50592;52.958;-7.470;2022-11-15T11:23:00;11.15;;;1.55;;
64252;SDS011;50592;52.958;-7.470;2022-11-15T11:37:39;11.32;;;2.08;;
64252;SDS011;50592;52.958;-7.470;2022-11-15T11:43:00;6.45;;;1.35;;
64252;SDS011;50592;52.958;-7.470;2022-11-15T11:50:38;16.33;;;2.00;;
64252;SDS011;50592;52.958;-7.470;2022-11-15T11:53:47;17.25;;;2.53;;
64252;SDS011;50592;52.958;-7.470;2022-11-15T11:56:06;10.40;;;1.52;;
64252;SDS011;50592;52.958;-7.470;2022-11-15T11:58:55;11.88;;;1.65;;
64252;SDS011;50592;52.958;-7.470;2022-11-15T12:01:39;10.52;;;2.05;;
64252;SDS011;50592;52.958;-7.470;2022-11-15T12:04:10;17.23;;;1.92;;
64252;SDS011;50592;52.958;-7.470;2022-11-15T12:12:49;7.60;;;1.33;;
64252;SDS011;50592;52.958;-7.470;2022-11-15T12:15:41;10.00;;;1.50;;
64252;SDS011;50592;52.958;-7.470;2022-11-15T12:18:08;17.90;;;1.93;;
64252;SDS011;50592;52.958;-7.470;2022-11-15T12:20:40;15.82;;;2.15;;
64252;SDS011;50592;52.958;-7.470;2022-11-15T12:23:20;11.20;;;1.67;;
64252;SDS011;50592;52.958;-7.470;2022-11-15T12:26:01;9.50;;;1.63;;
64252;SDS011;50592;52.958;-7.470;2022-11-15T12:28:50;9.60;;;2.03;;
64252;SDS011;50592;52.958;-7.470;2022-11-15T12:34:28;8.43;;;1.23;;
64252;SDS011;50592;52.958;-7.470;2022-11-15T12:37:01;10.77;;;1.30;;
64252;SDS011;50592;52.958;-7.470;2022-11-15T12:43:00;14.93;;;1.80;;
64252;SDS011;50592;52.958;-7.470;2022-11-15T12:45:39;13.13;;;1.67;;
64252;SDS011;50592;52.958;-7.470;2022-11-15T13:06:41;14.60;;;2.30;;
64252;SDS011;50592;52.958;-7.470;2022-11-15T13:11:53;24.40;;;3.58;;
64252;SDS011;50592;52.958;-7.470;2022-11-15T13:17:02;16.02;;;1.95;;
64252;SDS011;50592;52.958;-7.470;2022-11-15T13:28:22;9.55;;;1.73;;
64252;SDS011;50592;52.958;-7.470;2022-11-15T13:30:58;9.85;;;1.48;;
64252;SDS011;50592;52.958;-7.470;2022-11-15T13:33:30;11.85;;;1.75;;
64252;SDS011;50592;52.958;-7.470;2022-11-15T13:39:02;10.15;;;1.23;;
64252;SDS011;50592;52.958;-7.470;2022-11-15T13:41:29;10.52;;;1.55;;
64252;SDS011;50592;52.958;-7.470;2022-11-15T13:43:57;10.13;;;1.77;;
64252;SDS011;50592;52.958;-7.470;2022-11-15T13:46:25;18.88;;;2.03;;
64252;SDS011;50592;52.958;-7.470;2022-11-15T13:49:14;9.55;;;1.45;;
64252;SDS011;50592;52.958;-7.470;2022-11-15T13:51:44;10.60;;;1.63;;
64252;SDS011;50592;52.958;-7.470;2022-11-15T14:03:05;19.67;;;1.35;;
64252;SDS011;50592;52.958;-7.470;2022-11-15T14:05:33;13.35;;;2.38;;
64252;SDS011;50592;52.958;-7.470;2022-11-15T14:10:38;11.48;;;1.33;;
64252;SDS011;50592;52.958;-7.470;2022-11-15T14:13:10;14.75;;;1.40;;
64252;SDS011;50592;52.958;-7.470;2022-11-15T14:15:53;10.38;;;1.27;;
64252;SDS011;50592;52.958;-7.470;2022-11-15T14:21:08;11.98;;;1.27;;
64252;SDS011;50592;52.958;-7.470;2022-11-15T14:23:34;8.50;;;1.42;;
64252;SDS011;50592;52.958;-7.470;2022-11-15T14:26:00;8.95;;;1.20;;
64252;SDS011;50592;52.958;-7.470;2022-11-15T14:30:53;13.48;;;1.50;;
64252;SDS011;50592;52.958;-7.470;2022-11-15T14:33:32;12.43;;;1.60;;
64252;SDS011;50592;52.958;-7.470;2022-11-15T14:36:12;10.43;;;1.55;;
64252;SDS011;50592;52.958;-7.470;2022-11-15T14:38:38;23.20;;;2.47;;
64252;SDS011;50592;52.958;-7.470;2022-11-15T14:41:05;10.23;;;1.50;;
64252;SDS011;50592;52.958;-7.470;2022-11-15T14:43:33;13.20;;;1.98;;
64252;SDS011;50592;52.958;-7.470;2022-11-15T14:45:59;8.70;;;1.55;;
64252;SDS011;50592;52.958;-7.470;2022-11-15T14:48:26;13.45;;;1.75;;
64252;SDS011;50592;52.958;-7.470;2022-11-15T14:50:52;16.27;;;1.88;;
64252;SDS011;50592;52.958;-7.470;2022-11-15T14:53:18;14.25;;;2.15;;
64252;SDS011;50592;52.958;-7.470;2022-11-15T14:55:45;14.02;;;1.92;;
64252;SDS011;50592;52.958;-7.470;2022-11-15T14:58:11;13.02;;;2.00;;
64252;SDS011;50592;52.958;-7.470;2022-11-15T15:00:37;17.48;;;2.15;;
64252;SDS011;50592;52.958;-7.470;2022-11-15T15:03:05;15.93;;;2.30;;
64252;SDS011;50592;52.958;-7.470;2022-11-15T15:05:32;12.90;;;1.63;;
64252;SDS011;50592;52.958;-7.470;2022-11-15T15:08:01;17.45;;;1.90;;
64252;SDS011;50592;52.958;-7.470;2022-11-15T15:10:28;13.80;;;2.35;;
64252;SDS011;50592;52.958;-7.470;2022-11-15T15:13:00;7.63;;;1.50;;
64252;SDS011;50592;52.958;-7.470;2022-11-15T15:15:33;9.02;;;1.23;;
64252;SDS011;50592;52.958;-7.470;2022-11-15T15:18:00;14.73;;;1.67;;
64252;SDS011;50592;52.958;-7.470;2022-11-15T15:20:27;6.50;;;1.15;;
64252;SDS011;50592;52.958;-7.470;2022-11-15T15:22:54;6.75;;;1.08;;
64252;SDS011;50592;52.958;-7.470;2022-11-15T15:25:21;9.85;;;1.35;;
64252;SDS011;50592;52.958;-7.470;2022-11-15T15:27:47;2.92;;;0.80;;
64252;SDS011;50592;52.958;-7.470;2022-11-15T15:30:14;6.75;;;0.70;;
64252;SDS011;50592;52.958;-7.470;2022-11-15T15:32:40;4.72;;;1.00;;
64252;SDS011;50592;52.958;-7.470;2022-11-15T15:35:05;5.90;;;0.95;;
64252;SDS011;50592;52.958;-7.470;2022-11-15T15:37:36;3.95;;;0.55;;
64252;SDS011;50592;52.958;-7.470;2022-11-15T15:40:01;5.47;;;0.55;;
64252;SDS011;50592;52.958;-7.470;2022-11-15T15:42:27;4.32;;;0.70;;
64252;SDS011;50592;52.958;-7.470;2022-11-15T15:44:53;3.40;;;0.70;;
64252;SDS011;50592;52.958;-7.470;2022-11-15T15:47:20;2.00;;;0.40;;
64252;SDS011;50592;52.958;-7.470;2022-11-15T15:49:49;4.68;;;0.90;;
64252;SDS011;50592;52.958;-7.470;2022-11-15T15:52:15;2.92;;;0.68;;
64252;SDS011;50592;52.958;-7.470;2022-11-15T15:54:42;3.92;;;0.60;;
64252;SDS011;50592;52.958;-7.470;2022-11-15T15:57:08;3.08;;;0.30;;
64252;SDS011;50592;52.958;-7.470;2022-11-15T15:59:37;3.97;;;0.73;;
64252;SDS011;50592;52.958;-7.470;2022-11-15T16:02:03;4.78;;;0.68;;
64252;SDS011;50592;52.958;-7.470;2022-11-15T16:04:29;3.10;;;0.40;;
64252;SDS011;50592;52.958;-7.470;2022-11-15T16:06:59;4.82;;;0.55;;
64252;SDS011;50592;52.958;-7.470;2022-11-15T16:09:26;4.53;;;0.57;;
64252;SDS011;50592;52.958;-7.470;2022-11-15T16:12:10;5.72;;;0.50;;
64252;SDS011;50592;52.958;-7.470;2022-11-15T16:14:36;5.93;;;0.85;;
64252;SDS011;50592;52.958;-7.470;2022-11-15T16:17:02;4.22;;;0.52;;
64252;SDS011;50592;52.958;-7.470;2022-11-15T16:19:28;3.70;;;0.70;;
64252;SDS011;50592;52.958;-7.470;2022-11-15T16:21:54;6.35;;;0.82;;
64252;SDS011;50592;52.958;-7.470;2022-11-15T16:24:20;2.60;;;0.38;;
64252;SDS011;50592;52.958;-7.470;2022-11-15T16:26:47;3.83;;;0.65;;
64252;SDS011;50592;52.958;-7.470;2022-11-15T16:29:13;3.88;;;0.80;;
64252;SDS011;50592;52.958;-7.470;2022-11-15T16:31:39;6.68;;;1.05;;
64252;SDS011;50592;52.958;-7.470;2022-11-15T16:34:05;4.40;;;0.52;;
64252;SDS011;50592;52.958;-7.470;2022-11-15T16:36:32;1.92;;;0.45;;
64252;SDS011;50592;52.958;-7.470;2022-11-15T16:38:59;3.78;;;0.88;;
64252;SDS011;50592;52.958;-7.470;2022-11-15T16:41:29;3.88;;;0.75;;
64252;SDS011;50592;52.958;-7.470;2022-11-15T16:43:55;4.30;;;1.00;;
64252;SDS011;50592;52.958;-7.470;2022-11-15T16:46:22;5.25;;;1.15;;
64252;SDS011;50592;52.958;-7.470;2022-11-15T16:48:49;9.00;;;1.30;;
64252;SDS011;50592;52.958;-7.470;2022-11-15T16:51:16;5.07;;;0.60;;
64252;SDS011;50592;52.958;-7.470;2022-11-15T16:53:42;6.95;;;0.85;;
64252;SDS011;50592;52.958;-7.470;2022-11-15T16:56:14;6.95;;;0.93;;
64252;SDS011;50592;52.958;-7.470;2022-11-15T16:58:47;4.63;;;0.82;;
64252;SDS011;50592;52.958;-7.470;2022-11-15T17:01:17;6.60;;;1.00;;
64252;SDS011;50592;52.958;-7.470;2022-11-15T17:03:46;8.13;;;1.20;;
64252;SDS011;50592;52.958;-7.470;2022-11-15T17:06:12;5.05;;;1.10;;
64252;SDS011;50592;52.958;-7.470;2022-11-15T17:08:38;5.25;;;0.90;;
64252;SDS011;50592;52.958;-7.470;2022-11-15T17:11:04;8.52;;;1.00;;
64252;SDS011;50592;52.958;-7.470;2022-11-15T17:13:31;11.57;;;1.30;;
64252;SDS011;50592;52.958;-7.470;2022-11-15T17:16:05;3.85;;;1.05;;
64252;SDS011;50592;52.958;-7.470;2022-11-15T17:18:32;7.28;;;1.23;;
64252;SDS011;50592;52.958;-7.470;2022-11-15T17:21:03;9.27;;;1.45;;
64252;SDS011;50592;52.958;-7.470;2022-11-15T17:23:31;6.95;;;0.98;;
64252;SDS011;50592;52.958;-7.470;2022-11-15T17:25:58;11.75;;;1.88;;
64252;SDS011;50592;52.958;-7.470;2022-11-15T17:28:25;8.48;;;1.55;;
64252;SDS011;50592;52.958;-7.470;2022-11-15T17:30:51;8.73;;;1.17;;
64252;SDS011;50592;52.958;-7.470;2022-11-15T17:33:18;5.25;;;0.77;;
64252;SDS011;50592;52.958;-7.470;2022-11-15T17:35:44;8.68;;;2.00;;
64252;SDS011;50592;52.958;-7.470;2022-11-15T17:38:09;15.38;;;5.68;;
64252;SDS011;50592;52.958;-7.470;2022-11-15T17:40:35;13.38;;;6.93;;
64252;SDS011;50592;52.958;-7.470;2022-11-15T17:43:01;10.35;;;6.35;;
64252;SDS011;50592;52.958;-7.470;2022-11-15T17:45:29;11.20;;;4.85;;
64252;SDS011;50592;52.958;-7.470;2022-11-15T17:47:54;16.30;;;2.97;;
64252;SDS011;50592;52.958;-7.470;2022-11-15T17:50:20;4.95;;;1.50;;
64252;SDS011;50592;52.958;-7.470;2022-11-15T17:52:46;9.77;;;2.10;;
64252;SDS011;50592;52.958;-7.470;2022-11-15T17:55:11;5.97;;;1.63;;
64252;SDS011;50592;52.958;-7.470;2022-11-15T17:57:37;8.65;;;1.42;;
64252;SDS011;50592;52.958;-7.470;2022-11-15T18:00:03;7.85;;;1.35;;
64252;SDS011;50592;52.958;-7.470;2022-11-15T18:02:30;12.60;;;1.63;;
64252;SDS011;50592;52.958;-7.470;2022-11-15T18:04:56;5.97;;;1.50;;
64252;SDS011;50592;52.958;-7.470;2022-11-15T18:07:21;10.07;;;1.80;;
64252;SDS011;50592;52.958;-7.470;2022-11-15T18:09:47;7.32;;;2.28;;
64252;SDS011;50592;52.958;-7.470;2022-11-15T18:12:13;9.75;;;2.08;;
64252;SDS011;50592;52.958;-7.470;2022-11-15T18:14:39;10.07;;;1.88;;
64252;SDS011;50592;52.958;-7.470;2022-11-15T18:17:05;9.23;;;2.08;;